createdAt,value
2022-12-06T00:02:17.726Z,101903.28
2022-12-06T00:05:19.189Z,101905.81
2022-12-06T00:08:20.644Z,101904.94
2022-12-06T00:11:27.830Z,101902.38
2022-12-06T00:14:29.177Z,101900.69
2022-12-06T00:17:30.574Z,101904.94
2022-12-06T00:20:31.921Z,101902.38
2022-12-06T00:23:35.729Z,101896.41
2022-12-06T00:26:42.839Z,101898.97
2022-12-06T00:29:44.186Z,101896.41
2022-12-06T00:32:45.527Z,101898.13
2022-12-06T00:35:55.477Z,101898.97
2022-12-06T00:39:00.178Z,101896.41
2022-12-06T00:42:01.538Z,101893.84
2022-12-06T00:45:03.231Z,101889.63
2022-12-06T00:48:04.891Z,101892.16
2022-12-06T00:51:06.297Z,101893.00
2022-12-06T00:54:08.779Z,101892.16
2022-12-06T00:57:10.123Z,101885.34
2022-12-06T01:00:12.251Z,101882.78
2022-12-06T01:03:13.716Z,101884.50
2022-12-06T01:06:15.892Z,101884.50
2022-12-06T01:09:17.356Z,101876.81
2022-12-06T01:12:18.687Z,101877.69
2022-12-06T01:15:20.038Z,101886.19
2022-12-06T01:18:21.615Z,101874.28
2022-12-06T01:21:24.451Z,101872.56
2022-12-06T01:24:25.801Z,101871.75
2022-12-06T01:27:27.132Z,101873.44
2022-12-06T01:30:28.560Z,101883.63
2022-12-06T01:33:29.971Z,101875.97
2022-12-06T01:36:31.545Z,101881.09
2022-12-06T01:39:32.888Z,101878.53
2022-12-06T01:42:34.351Z,101882.78
2022-12-06T01:45:35.720Z,101875.13
2022-12-06T01:48:37.888Z,101871.72
2022-12-06T01:51:53.582Z,101871.75
2022-12-06T01:54:55.205Z,101872.56
2022-12-06T01:58:15.781Z,101873.41
2022-12-06T02:01:17.370Z,101873.41
2022-12-06T02:04:19.335Z,101865.78
2022-12-06T02:07:22.198Z,101875.97
2022-12-06T02:10:23.698Z,101865.78
2022-12-06T02:13:25.886Z,101871.72
2022-12-06T02:16:33.900Z,101870.88
2022-12-06T02:19:38.023Z,101862.41
2022-12-06T02:23:08.698Z,101858.13
2022-12-06T02:26:28.471Z,101856.41
2022-12-06T02:30:01.787Z,101850.47
2022-12-06T02:33:18.646Z,101859.84
2022-12-06T02:36:55.700Z,101853.88
2022-12-06T02:40:05.896Z,101853.03
2022-12-06T02:43:15.732Z,101847.91
2022-12-06T02:46:21.083Z,101841.97
2022-12-06T02:49:26.132Z,101845.34
2022-12-06T02:52:30.247Z,101844.50
2022-12-06T02:55:32.996Z,101840.25
2022-12-06T02:58:37.867Z,101836.84
2022-12-06T03:01:45.266Z,101841.94
2022-12-06T03:05:00.576Z,101840.22
2022-12-06T03:08:13.800Z,101846.19
2022-12-06T03:11:15.759Z,101835.13
2022-12-06T03:14:24.474Z,101845.31
2022-12-06T03:17:43.908Z,101842.75
2022-12-06T03:20:56.197Z,101829.13
2022-12-06T03:23:58.442Z,101833.41
2022-12-06T03:27:04.422Z,101829.97
2022-12-06T03:30:09.401Z,101833.38
2022-12-06T03:33:12.729Z,101833.34
2022-12-06T03:36:17.233Z,101845.31
2022-12-06T03:39:40.814Z,101840.19
2022-12-06T03:42:42.747Z,101839.34
2022-12-06T03:45:56.608Z,101835.97
2022-12-06T03:49:17.822Z,101837.66
2022-12-06T03:52:19.218Z,101829.16
2022-12-06T03:55:20.579Z,101836.78
2022-12-06T03:58:21.925Z,101834.22
2022-12-06T04:01:23.792Z,101825.72
2022-12-06T04:04:25.207Z,101827.44
2022-12-06T04:07:26.560Z,101823.13
2022-12-06T04:10:27.907Z,101831.66
2022-12-06T04:13:29.512Z,101819.75
2022-12-06T04:16:30.846Z,101823.97
2022-12-06T04:19:32.220Z,101817.19
2022-12-06T04:22:33.575Z,101812.91
2022-12-06T04:25:36.398Z,101806.09
2022-12-06T04:28:38.087Z,101818.88
2022-12-06T04:31:40.655Z,101803.53
2022-12-06T04:34:42.029Z,101807.84
2022-12-06T04:37:43.360Z,101802.75
2022-12-06T04:40:46.920Z,101806.13
2022-12-06T04:43:48.273Z,101803.56
2022-12-06T04:46:49.673Z,101807.84
2022-12-06T04:49:52.545Z,101800.16
2022-12-06T04:52:53.868Z,101802.72
2022-12-06T04:55:55.384Z,101797.63
2022-12-06T04:58:56.818Z,101796.75
2022-12-06T05:01:58.196Z,101794.22
2022-12-06T05:04:59.546Z,101795.09
2022-12-06T05:08:00.900Z,101800.19
2022-12-06T05:11:02.312Z,101800.25
2022-12-06T05:14:03.854Z,101797.69
2022-12-06T05:17:05.302Z,101795.19
2022-12-06T05:20:07.241Z,101797.72
2022-12-06T05:23:08.611Z,101797.72
2022-12-06T05:26:13.564Z,101794.34
2022-12-06T05:29:14.903Z,101798.66
2022-12-06T05:32:16.291Z,101791.84
2022-12-06T05:35:17.770Z,101796.94
2022-12-06T05:38:20.178Z,101794.38
2022-12-06T05:41:23.188Z,101797.78
2022-12-06T05:44:24.540Z,101790.97
2022-12-06T05:47:25.878Z,101796.97
2022-12-06T05:50:27.288Z,101794.41
2022-12-06T05:53:28.963Z,101800.38
2022-12-06T05:56:30.504Z,101797.84
2022-12-06T05:59:31.842Z,101802.06
2022-12-06T06:02:33.354Z,101793.56
2022-12-06T06:05:34.888Z,101799.53
2022-12-06T06:08:36.284Z,101799.50
2022-12-06T06:11:37.636Z,101797.81
2022-12-06T06:14:39.127Z,101801.22
2022-12-06T06:17:40.655Z,101802.94
2022-12-06T06:20:42.047Z,101793.56
2022-12-06T06:23:43.453Z,101798.69
2022-12-06T06:26:44.805Z,101795.28
2022-12-06T06:29:46.157Z,101800.38
2022-12-06T06:32:47.674Z,101802.06
2022-12-06T06:35:49.077Z,101809.72
2022-12-06T06:38:50.437Z,101811.44
2022-12-06T06:41:51.765Z,101812.31
2022-12-06T06:44:53.501Z,101810.63
2022-12-06T06:47:54.938Z,101814.00
2022-12-06T06:50:57.943Z,101813.19
2022-12-06T06:53:59.517Z,101815.75
2022-12-06T06:57:00.892Z,101814.91
2022-12-06T07:00:03.833Z,101821.72
2022-12-06T07:03:05.344Z,101823.41
2022-12-06T07:06:10.718Z,101827.69
2022-12-06T07:09:12.455Z,101825.13
2022-12-06T07:12:13.875Z,101826.84
2022-12-06T07:15:15.399Z,101821.75
2022-12-06T07:18:17.970Z,101828.53
2022-12-06T07:21:19.958Z,101828.59
2022-12-06T07:24:21.347Z,101827.72
2022-12-06T07:27:22.732Z,101826.03
2022-12-06T07:30:27.365Z,101820.00
2022-12-06T07:33:28.809Z,101820.91
2022-12-06T07:36:31.904Z,101811.53
2022-12-06T07:39:33.257Z,101813.25
2022-12-06T07:42:34.628Z,101820.91
2022-12-06T07:45:36.488Z,101826.84
2022-12-06T07:48:37.940Z,101826.03
2022-12-06T07:51:39.280Z,101821.75
2022-12-06T07:54:41.056Z,101824.28
2022-12-06T07:57:43.896Z,101821.75
2022-12-06T08:00:45.524Z,101825.16
2022-12-06T08:03:46.883Z,101819.19
2022-12-06T08:06:48.257Z,101820.91
2022-12-06T08:09:51.385Z,101824.31
2022-12-06T08:12:52.910Z,101828.56
2022-12-06T08:15:54.433Z,101831.09
2022-12-06T08:18:56.035Z,101834.50
2022-12-06T08:21:57.431Z,101837.91
2022-12-06T08:24:58.739Z,101837.03
2022-12-06T08:28:00.083Z,101837.88
2022-12-06T08:31:10.131Z,101838.72
2022-12-06T08:34:12.897Z,101843.03
2022-12-06T08:37:14.224Z,101843.88
2022-12-06T08:40:15.662Z,101839.59
2022-12-06T08:43:17.011Z,101839.66
2022-12-06T08:46:18.412Z,101832.84
2022-12-06T08:49:20.610Z,101837.13
2022-12-06T08:52:21.976Z,101842.19
2022-12-06T08:55:23.309Z,101839.59
2022-12-06T08:58:24.647Z,101840.44
2022-12-06T09:01:34.157Z,101841.34
2022-12-06T09:04:38.807Z,101842.19
2022-12-06T09:07:40.261Z,101842.16
2022-12-06T09:10:43.450Z,101849.78
2022-12-06T09:13:45.116Z,101848.06
2022-12-06T09:16:46.460Z,101854.84
2022-12-06T09:19:47.835Z,101851.47
2022-12-06T09:22:49.180Z,101851.47
2022-12-06T09:25:50.544Z,101856.59
2022-12-06T09:28:54.776Z,101855.75
2022-12-06T09:31:56.128Z,101867.66
2022-12-06T09:34:57.449Z,101862.59
2022-12-06T09:37:59.941Z,101860.00
2022-12-06T09:41:15.536Z,101858.34
2022-12-06T09:44:35.194Z,101860.09
2022-12-06T09:47:48.801Z,101859.25
2022-12-06T09:51:05.356Z,101850.84
2022-12-06T09:54:37.956Z,101843.09
2022-12-06T09:58:02.369Z,101845.56
2022-12-06T10:01:22.076Z,101843.91
2022-12-06T10:04:56.440Z,101842.16
2022-12-06T10:08:03.787Z,101844.72
2022-12-06T10:11:12.546Z,101834.47
2022-12-06T10:14:36.722Z,101837.03
2022-12-06T10:17:52.611Z,101837.88
2022-12-06T10:21:10.350Z,101829.28
2022-12-06T10:24:36.979Z,101835.19
2022-12-06T10:27:44.484Z,101829.25
2022-12-06T10:30:55.922Z,101832.63
2022-12-06T10:34:20.204Z,101832.63
2022-12-06T10:37:36.633Z,101830.09
2022-12-06T10:40:49.916Z,101832.66
2022-12-06T10:44:14.790Z,101827.59
2022-12-06T10:47:26.679Z,101824.97
2022-12-06T10:50:34.851Z,101820.72
2022-12-06T10:53:44.879Z,101821.53
2022-12-06T10:56:48.992Z,101814.75
2022-12-06T11:00:10.416Z,101809.59
2022-12-06T11:03:29.409Z,101807.13
2022-12-06T11:06:36.913Z,101807.06
2022-12-06T11:09:45.873Z,101807.09
2022-12-06T11:12:50.772Z,101808.88
2022-12-06T11:16:15.885Z,101818.09
2022-12-06T11:19:31.386Z,101816.31
2022-12-06T11:22:47.688Z,101815.41
2022-12-06T11:26:16.065Z,101808.63
2022-12-06T11:29:18.130Z,101801.84
2022-12-06T11:32:19.739Z,101798.44
2022-12-06T11:35:26.788Z,101800.13
2022-12-06T11:38:28.622Z,101788.25
2022-12-06T11:41:34.959Z,101787.47
2022-12-06T11:44:55.084Z,101785.84
2022-12-06T11:47:58.774Z,101785.03
2022-12-06T11:51:00.502Z,101778.34
2022-12-06T11:54:22.441Z,101780.81
2022-12-06T11:57:28.059Z,101773.94
2022-12-06T12:00:31.306Z,101779.03
2022-12-06T12:03:34.303Z,101780.06
2022-12-06T12:06:36.703Z,101772.28
2022-12-06T12:09:46.667Z,101773.94
2022-12-06T12:12:49.414Z,101769.66
2022-12-06T12:15:53.454Z,101771.38
2022-12-06T12:19:24.817Z,101765.34
2022-12-06T12:22:40.242Z,101762.78
2022-12-06T12:25:41.695Z,101766.16
2022-12-06T12:28:44.956Z,101765.31
2022-12-06T12:31:50.856Z,101755.97
2022-12-06T12:34:52.292Z,101755.09
2022-12-06T12:38:16.405Z,101751.72
2022-12-06T12:41:37.724Z,101761.91
2022-12-06T12:44:40.188Z,101757.63
2022-12-06T12:47:56.337Z,101759.34
2022-12-06T12:51:00.726Z,101751.63
2022-12-06T12:54:05.538Z,101752.41
2022-12-06T12:57:13.473Z,101732.75
2022-12-06T13:00:28.393Z,101737.84
2022-12-06T13:04:00.099Z,101732.63
2022-12-06T13:07:09.982Z,101727.41
2022-12-06T13:10:38.625Z,101726.53
2022-12-06T13:13:45.202Z,101716.19
2022-12-06T13:16:50.989Z,101710.19
2022-12-06T13:19:53.810Z,101713.72
2022-12-06T13:23:11.338Z,101706.19
2022-12-06T13:26:22.312Z,101706.25
2022-12-06T13:29:38.934Z,101702.84
2022-12-06T13:32:56.883Z,101702.06
2022-12-06T13:36:04.459Z,101704.66
2022-12-06T13:39:30.615Z,101712.44
2022-12-06T13:42:38.012Z,101714.97
2022-12-06T13:45:44.093Z,101711.53
2022-12-06T13:49:41.755Z,101710.69
2022-12-06T13:52:48.062Z,101712.41
2022-12-06T13:56:02.226Z,101702.19
2022-12-06T13:59:13.529Z,101706.44
2022-12-06T14:02:43.321Z,101703.94
2022-12-06T14:08:57.588Z,101708.25
2022-12-06T14:11:59.658Z,101713.44
2022-12-06T14:15:04.335Z,101707.53
2022-12-06T14:18:11.205Z,101707.56
2022-12-06T14:21:36.209Z,101701.69
2022-12-06T14:24:40.786Z,101698.34
2022-12-06T14:27:45.914Z,101694.97
2022-12-06T14:30:47.370Z,101690.72
2022-12-06T14:33:48.944Z,101688.19
2022-12-06T14:36:50.401Z,101686.50
2022-12-06T14:39:53.409Z,101683.00
2022-12-06T14:43:02.475Z,101690.72
2022-12-06T14:46:11.577Z,101689.16
2022-12-06T14:49:16.235Z,101679.97
2022-12-06T14:52:17.502Z,101692.81
2022-12-06T14:55:19.763Z,101696.34
2022-12-06T14:58:25.895Z,101697.28
2022-12-06T15:01:31.459Z,101692.25
2022-12-06T15:04:38.243Z,101693.97
2022-12-06T15:07:42.001Z,101692.31
2022-12-06T15:11:16.344Z,101694.91
2022-12-06T15:14:23.862Z,101689.88
2022-12-06T15:17:25.291Z,101689.88
2022-12-06T15:20:26.670Z,101701.78
2022-12-06T15:23:33.332Z,101701.78
2022-12-06T15:26:34.675Z,101697.53
2022-12-06T15:29:36.040Z,101697.53
2022-12-06T15:32:37.384Z,101702.63
2022-12-06T15:35:38.712Z,101703.47
2022-12-06T15:38:40.036Z,101705.97
2022-12-06T15:41:42.100Z,101700.91
2022-12-06T15:44:48.886Z,101700.03
2022-12-06T15:47:50.705Z,101695.78
2022-12-06T15:50:52.064Z,101692.41
2022-12-06T15:53:56.272Z,101689.00
2022-12-06T15:56:57.629Z,101692.38
2022-12-06T15:59:58.984Z,101699.13
2022-12-06T16:03:00.468Z,101700.00
2022-12-06T16:06:01.894Z,101690.69
2022-12-06T16:09:03.393Z,101699.16
2022-12-06T16:12:05.069Z,101694.94
2022-12-06T16:15:06.789Z,101692.41
2022-12-06T16:18:08.118Z,101698.34
2022-12-06T16:21:19.369Z,101700.91
2022-12-06T16:24:21.351Z,101698.34
2022-12-06T16:27:22.718Z,101700.06
2022-12-06T16:30:31.546Z,101699.22
2022-12-06T16:33:33.150Z,101695.81
2022-12-06T16:36:34.986Z,101697.53
2022-12-06T16:39:36.368Z,101687.38
2022-12-06T16:42:37.770Z,101682.28
2022-12-06T16:45:43.503Z,101688.19
2022-12-06T16:48:45.021Z,101679.72
2022-12-06T16:51:47.079Z,101679.72
2022-12-06T16:54:48.471Z,101680.56
2022-12-06T16:57:50.143Z,101679.72
2022-12-06T17:00:51.616Z,101680.56
2022-12-06T17:03:55.719Z,101681.41
2022-12-06T17:06:57.097Z,101680.56
2022-12-06T17:09:58.896Z,101683.97
2022-12-06T17:13:00.292Z,101683.97
2022-12-06T17:16:01.724Z,101684.78
2022-12-06T17:19:05.958Z,101689.91
2022-12-06T17:22:09.801Z,101675.47
2022-12-06T17:25:12.688Z,101691.59
2022-12-06T17:28:14.040Z,101686.50
2022-12-06T17:31:15.641Z,101685.66
2022-12-06T17:34:17.848Z,101680.56
2022-12-06T17:37:19.645Z,101678.03
2022-12-06T17:40:20.991Z,101671.22
2022-12-06T17:43:22.305Z,101674.63
2022-12-06T17:46:23.856Z,101671.22
2022-12-06T17:49:26.524Z,101669.50
2022-12-06T17:52:27.866Z,101665.28
2022-12-06T17:55:29.350Z,101650.88
2022-12-06T17:58:30.669Z,101653.44
2022-12-06T18:01:58.069Z,101655.13
2022-12-06T18:04:55.041Z,101647.47
2022-12-06T18:07:56.456Z,101650.00
2022-12-06T18:10:59.103Z,101641.56
2022-12-06T18:14:01.203Z,101640.69
2022-12-06T18:17:02.832Z,101627.97
2022-12-06T18:20:04.607Z,101624.56
2022-12-06T18:23:05.991Z,101619.47
2022-12-06T18:26:09.316Z,101622.06
2022-12-06T18:29:20.603Z,101622.03
2022-12-06T18:32:21.968Z,101621.22
2022-12-06T18:35:23.331Z,101619.50
2022-12-06T18:38:25.146Z,101608.47
2022-12-06T18:41:26.799Z,101607.66
2022-12-06T18:44:28.163Z,101601.69
2022-12-06T18:47:29.808Z,101610.19
2022-12-06T18:50:31.992Z,101594.06
2022-12-06T18:53:33.941Z,101594.06
2022-12-06T18:56:35.873Z,101594.91
2022-12-06T18:59:37.268Z,101598.31
2022-12-06T19:02:38.764Z,101600.84
2022-12-06T19:06:01.738Z,101598.31
2022-12-06T19:09:05.264Z,101593.25
2022-12-06T19:12:06.725Z,101588.16
2022-12-06T19:15:08.582Z,101583.91
2022-12-06T19:18:09.957Z,101586.44
2022-12-06T19:21:11.282Z,101575.41
2022-12-06T19:24:15.346Z,101578.78
2022-12-06T19:27:20.496Z,101574.59
2022-12-06T19:30:22.180Z,101573.72
2022-12-06T19:33:23.593Z,101568.63
2022-12-06T19:36:30.443Z,101562.69
2022-12-06T19:39:31.868Z,101571.16
2022-12-06T19:42:34.463Z,101569.50
2022-12-06T19:45:35.891Z,101570.34
2022-12-06T19:48:38.018Z,101566.94
2022-12-06T19:51:44.524Z,101568.63
2022-12-06T19:54:45.842Z,101559.31
2022-12-06T19:57:47.203Z,101552.50
2022-12-06T20:00:48.538Z,101549.97
2022-12-06T20:03:50.772Z,101549.97
2022-12-06T20:06:52.743Z,101545.72
2022-12-06T20:09:54.132Z,101536.41
2022-12-06T20:12:55.455Z,101537.25
2022-12-06T20:16:01.199Z,101532.16
2022-12-06T20:19:03.932Z,101518.59
2022-12-06T20:22:05.456Z,101523.69
2022-12-06T20:25:07.169Z,101510.09
2022-12-06T20:28:13.359Z,101511.81
2022-12-06T20:31:24.296Z,101502.47
2022-12-06T20:34:27.406Z,101498.19
2022-12-06T20:37:28.795Z,101500.75
2022-12-06T20:40:31.762Z,101495.66
2022-12-06T20:43:33.356Z,101488.00
2022-12-06T20:46:34.781Z,101494.78
2022-12-06T20:49:36.161Z,101482.03
2022-12-06T20:52:37.492Z,101477.78
2022-12-06T20:55:38.834Z,101483.69
2022-12-06T20:58:40.146Z,101475.19
2022-12-06T21:01:41.836Z,101476.88
2022-12-06T21:04:43.313Z,101465.84
2022-12-06T21:07:44.783Z,101469.22
2022-12-06T21:11:20.619Z,101470.91
2022-12-06T21:14:07.555Z,101457.31
2022-12-06T21:17:08.905Z,101455.56
2022-12-06T21:20:10.714Z,101445.38
2022-12-06T21:23:12.269Z,101443.63
2022-12-06T21:26:13.645Z,101448.72
2022-12-06T21:29:21.669Z,101439.34
2022-12-06T21:32:25.134Z,101444.41
2022-12-06T21:35:26.520Z,101439.28
2022-12-06T21:38:30.086Z,101433.31
2022-12-06T21:41:31.510Z,101425.69
2022-12-06T21:44:32.827Z,101428.22
2022-12-06T21:47:34.177Z,101425.63
2022-12-06T21:50:36.363Z,101434.13
2022-12-06T21:53:38.255Z,101420.53
2022-12-06T21:56:39.614Z,101420.50
2022-12-06T21:59:41.231Z,101414.50
2022-12-06T22:02:43.937Z,101418.72
2022-12-06T22:05:45.335Z,101418.72
2022-12-06T22:08:48.691Z,101405.09
2022-12-06T22:11:50.033Z,101398.28
2022-12-06T22:14:51.475Z,101402.53
2022-12-06T22:17:52.812Z,101401.69
2022-12-06T22:21:03.497Z,101401.66
2022-12-06T22:24:05.136Z,101401.63
2022-12-06T22:27:06.506Z,101403.31
2022-12-06T22:30:08.404Z,101409.22
2022-12-06T22:33:09.724Z,101408.34
2022-12-06T22:36:11.967Z,101408.31
2022-12-06T22:39:13.357Z,101408.28
2022-12-06T22:42:14.725Z,101394.69
2022-12-06T22:45:16.117Z,101379.41
2022-12-06T22:48:17.661Z,101383.69
2022-12-06T22:51:27.783Z,101387.06
2022-12-06T22:54:29.182Z,101376.91
2022-12-06T22:57:30.609Z,101368.41
2022-12-06T23:00:31.977Z,101365.88
2022-12-06T23:03:33.396Z,101360.00
2022-12-06T23:06:35.583Z,101354.97
2022-12-06T23:09:37.133Z,101360.13
2022-12-06T23:12:39.771Z,101362.69
2022-12-06T23:15:41.104Z,101358.53
2022-12-06T23:18:42.905Z,101361.09
2022-12-06T23:21:44.243Z,101360.25
2022-12-06T23:24:45.594Z,101351.72
2022-12-06T23:27:46.962Z,101344.94
2022-12-06T23:30:48.308Z,101339.75
2022-12-06T23:33:55.537Z,101339.72
2022-12-06T23:36:56.872Z,101320.16
2022-12-06T23:39:58.351Z,101321.81
2022-12-06T23:42:59.983Z,101309.94
2022-12-06T23:46:07.096Z,101314.25
2022-12-06T23:49:15.795Z,101317.72
2022-12-06T23:52:17.163Z,101312.63
2022-12-06T23:55:18.525Z,101330.44
2022-12-06T23:58:19.907Z,101318.47
